Time;durP1;ratioP1;P1;durP2;ratioP2;P2;SDS_P1;SDS_P2;PMS_P1;PMS_P2;Temp;Humidity;BMP_temperature;BMP_pressure;BME280_temperature;BME280_humidity;BME280_pressure;Samples;Min_cycle;Max_cycle;Signal;HPM_P1;HPM_P2
2022/08/14 00:00:57;;;;;;;1.30;1.20;;;;;;;;;;2099060;28;20020;-65
2022/08/14 00:02:15;;;;;;;1.73;1.38;;;;;;;;;;2095312;28;20388;-65
2022/08/14 00:03:34;;;;;;;2.05;1.27;;;;;;;;;;2096422;28;20103;-65
2022/08/14 00:04:53;;;;;;;1.95;1.20;;;;;;;;;;2099292;28;20115;-65
2022/08/14 00:06:12;;;;;;;1.55;1.45;;;;;;;;;;2099055;28;20100;-65
2022/08/14 00:07:31;;;;;;;2.00;1.23;;;;;;;;;;2099310;28;20028;-65
2022/08/14 00:08:50;;;;;;;1.77;1.30;;;;;;;;;;2098267;28;20036;-65
2022/08/14 00:10:11;;;;;;;1.50;1.38;;;;;;;;;;2098070;28;20032;-65
2022/08/14 00:11:30;;;;;;;5.60;1.40;;;;;;;;;;2098025;28;20025;-65
2022/08/14 00:12:53;;;;;;;1.42;1.33;;;;;;;;;;2099722;28;20512;-65
2022/08/14 00:14:12;;;;;;;1.40;1.27;;;;;;;;;;2099463;28;20032;-65
2022/08/14 00:15:33;;;;;;;1.33;1.23;;;;;;;;;;2094436;28;20485;-65
2022/08/14 00:16:53;;;;;;;7.22;1.50;;;;;;;;;;2095853;28;20225;-65
2022/08/14 00:18:13;;;;;;;1.77;1.20;;;;;;;;;;2098425;28;20052;-65
2022/08/14 00:19:32;;;;;;;1.50;1.40;;;;;;;;;;2097651;28;20507;-65
2022/08/14 00:20:52;;;;;;;1.67;1.48;;;;;;;;;;2099209;28;21111;-65
2022/08/14 00:22:17;;;;;;;2.33;1.60;;;;;;;;;;2098473;28;20410;-65
2022/08/14 00:23:36;;;;;;;1.40;1.30;;;;;;;;;;2099439;28;20071;-65
2022/08/14 00:24:55;;;;;;;3.40;1.60;;;;;;;;;;2098721;28;20485;-65
2022/08/14 00:26:14;;;;;;;1.55;1.45;;;;;;;;;;2098211;28;20032;-65
2022/08/14 00:27:33;;;;;;;1.55;1.40;;;;;;;;;;2098575;28;20029;-65
2022/08/14 00:28:52;;;;;;;1.40;1.30;;;;;;;;;;2099936;28;20024;-66
2022/08/14 00:30:12;;;;;;;1.65;1.52;;;;;;;;;;2097247;28;20029;-66
2022/08/14 00:31:31;;;;;;;3.80;1.40;;;;;;;;;;2097746;28;20081;-65
2022/08/14 00:32:50;;;;;;;1.85;1.27;;;;;;;;;;2098012;28;20120;-66
2022/08/14 00:34:09;;;;;;;3.22;1.55;;;;;;;;;;2098332;28;20024;-65
2022/08/14 00:35:28;;;;;;;1.85;1.75;;;;;;;;;;2098928;28;20024;-65
2022/08/14 00:36:47;;;;;;;1.90;1.70;;;;;;;;;;2098552;28;20504;-65
2022/08/14 00:38:06;;;;;;;2.63;1.33;;;;;;;;;;2098735;28;20033;-65
2022/08/14 00:39:25;;;;;;;1.88;1.60;;;;;;;;;;2097948;28;20024;-66
2022/08/14 00:40:44;;;;;;;1.60;1.50;;;;;;;;;;2098936;28;20032;-66
2022/08/14 00:42:03;;;;;;;1.50;1.40;;;;;;;;;;2096198;28;20029;-66
2022/08/14 00:43:22;;;;;;;3.63;1.67;;;;;;;;;;2097482;28;20036;-66
2022/08/14 00:44:41;;;;;;;1.52;1.42;;;;;;;;;;2099450;28;20024;-65
2022/08/14 00:46:04;;;;;;;2.47;1.48;;;;;;;;;;2097098;28;20024;-66
2022/08/14 00:47:24;;;;;;;4.15;1.88;;;;;;;;;;2095397;28;20028;-65
2022/08/14 00:48:43;;;;;;;1.35;1.23;;;;;;;;;;2097434;28;20389;-65
2022/08/14 00:50:03;;;;;;;1.75;1.42;;;;;;;;;;2099255;28;20028;-65
2022/08/14 00:51:22;;;;;;;1.52;1.42;;;;;;;;;;2099376;28;20020;-64
2022/08/14 00:52:44;;;;;;;3.30;1.60;;;;;;;;;;2098329;28;20028;-65
2022/08/14 00:54:03;;;;;;;1.90;1.80;;;;;;;;;;2097496;28;20028;-64
2022/08/14 00:55:22;;;;;;;1.83;1.73;;;;;;;;;;2094214;28;20040;-64
2022/08/14 00:56:41;;;;;;;3.67;1.48;;;;;;;;;;2095872;28;20131;-64
2022/08/14 00:59:38;;;;;;;3.42;1.20;;;;;;;;;;2100079;28;20033;-64
2022/08/14 01:01:13;;;;;;;1.40;1.30;;;;;;;;;;2097097;28;20045;-64
2022/08/14 01:02:32;;;;;;;2.08;1.50;;;;;;;;;;2096227;28;20591;-65
2022/08/14 01:03:52;;;;;;;1.35;1.25;;;;;;;;;;2097058;28;20115;-64
2022/08/14 01:05:22;;;;;;;1.58;1.48;;;;;;;;;;2098741;28;20027;-64
2022/08/14 01:06:41;;;;;;;1.10;1.00;;;;;;;;;;2098842;28;20477;-64
2022/08/14 01:08:00;;;;;;;1.50;1.40;;;;;;;;;;2098246;28;20484;-64
2022/08/14 01:09:21;;;;;;;1.63;1.52;;;;;;;;;;2095526;28;20032;-64
2022/08/14 01:10:51;;;;;;;1.10;1.10;;;;;;;;;;2098175;28;20060;-64
2022/08/14 01:12:10;;;;;;;4.22;1.60;;;;;;;;;;2095146;28;20032;-64
2022/08/14 01:13:31;;;;;;;1.90;1.38;;;;;;;;;;2098905;28;20060;-64
2022/08/14 01:14:51;;;;;;;1.65;1.50;;;;;;;;;;2098198;28;20036;-64
2022/08/14 01:16:13;;;;;;;1.60;1.50;;;;;;;;;;2096687;28;20416;-65
2022/08/14 01:21:05;;;;;;;2.47;1.40;;;;;;;;;;2097687;28;20032;-65
2022/08/14 01:22:24;;;;;;;2.67;1.50;;;;;;;;;;2100503;28;20044;-64
2022/08/14 01:23:47;;;;;;;3.05;1.20;;;;;;;;;;2098625;28;20044;-64
2022/08/14 01:25:07;;;;;;;3.45;1.58;;;;;;;;;;2098585;28;20028;-64
2022/08/14 01:26:27;;;;;;;2.05;1.52;;;;;;;;;;2098621;28;20029;-64
2022/08/14 01:27:46;;;;;;;1.40;1.30;;;;;;;;;;2097297;28;20028;-64
2022/08/14 01:29:05;;;;;;;1.90;1.40;;;;;;;;;;2099380;28;20033;-64
2022/08/14 01:30:26;;;;;;;2.83;1.40;;;;;;;;;;2098049;28;20044;-64
2022/08/14 01:31:46;;;;;;;3.40;1.38;;;;;;;;;;2098998;28;20116;-64
2022/08/14 01:33:05;;;;;;;1.90;1.80;;;;;;;;;;2098669;28;20029;-65
2022/08/14 01:34:25;;;;;;;2.38;1.33;;;;;;;;;;2098670;28;20024;-64
2022/08/14 01:35:45;;;;;;;3.33;1.60;;;;;;;;;;2099152;28;20034;-64
2022/08/14 01:37:04;;;;;;;3.03;1.38;;;;;;;;;;2097490;28;20020;-64
2022/08/14 01:38:25;;;;;;;1.85;1.63;;;;;;;;;;2099899;28;20104;-64
2022/08/14 01:39:44;;;;;;;1.58;1.40;;;;;;;;;;2098693;28;20040;-65
2022/08/14 01:41:05;;;;;;;5.25;1.90;;;;;;;;;;2094348;28;20107;-64
2022/08/14 01:42:28;;;;;;;2.58;1.48;;;;;;;;;;2099681;28;20543;-64
2022/08/14 01:43:52;;;;;;;2.55;1.40;;;;;;;;;;2099440;28;20597;-64
2022/08/14 01:45:11;;;;;;;1.70;1.60;;;;;;;;;;2097484;28;20474;-64
2022/08/14 01:46:33;;;;;;;2.05;1.63;;;;;;;;;;2095862;28;20028;-64
2022/08/14 01:47:52;;;;;;;2.03;1.88;;;;;;;;;;2097942;28;20033;-64
2022/08/14 01:49:14;;;;;;;2.13;1.70;;;;;;;;;;2095783;28;20107;-64
2022/08/14 01:50:33;;;;;;;2.50;1.75;;;;;;;;;;2098643;28;20051;-64
2022/08/14 01:51:55;;;;;;;3.90;1.90;;;;;;;;;;2099553;28;20029;-64
2022/08/14 01:53:16;;;;;;;1.63;1.50;;;;;;;;;;2097172;28;20025;-65
2022/08/14 01:54:35;;;;;;;2.97;1.30;;;;;;;;;;2097340;28;20033;-64
2022/08/14 01:55:56;;;;;;;2.08;1.60;;;;;;;;;;2099162;28;20070;-64
2022/08/14 01:57:15;;;;;;;3.08;1.38;;;;;;;;;;2096786;28;20029;-65
2022/08/14 01:58:34;;;;;;;2.38;1.50;;;;;;;;;;2096728;28;20044;-64
2022/08/14 01:59:55;;;;;;;2.25;1.58;;;;;;;;;;2099418;28;20040;-64
2022/08/14 02:01:15;;;;;;;1.73;1.60;;;;;;;;;;2100053;28;20028;-64
2022/08/14 02:02:33;;;;;;;2.60;1.40;;;;;;;;;;2099245;28;20027;-64
2022/08/14 02:03:52;;;;;;;1.95;1.23;;;;;;;;;;2097759;28;20025;-64
2022/08/14 02:05:12;;;;;;;1.70;1.60;;;;;;;;;;2099655;28;20036;-64
2022/08/14 02:06:31;;;;;;;3.83;1.50;;;;;;;;;;2101266;28;20195;-65
2022/08/14 02:07:50;;;;;;;2.13;1.45;;;;;;;;;;2099257;28;20033;-64
2022/08/14 02:09:09;;;;;;;1.70;1.60;;;;;;;;;;2098432;28;20054;-64
2022/08/14 02:10:28;;;;;;;1.85;1.67;;;;;;;;;;2100381;28;20488;-65
2022/08/14 02:11:48;;;;;;;3.45;1.52;;;;;;;;;;2101339;28;20118;-65
2022/08/14 02:13:07;;;;;;;1.75;1.65;;;;;;;;;;2100295;28;20385;-65
2022/08/14 02:14:27;;;;;;;2.83;1.50;;;;;;;;;;2099997;28;20476;-65
2022/08/14 02:15:46;;;;;;;2.28;1.45;;;;;;;;;;2099548;28;20392;-65
2022/08/14 02:17:05;;;;;;;2.97;1.52;;;;;;;;;;2097568;28;20028;-65
2022/08/14 02:18:26;;;;;;;2.13;1.88;;;;;;;;;;2101148;28;20025;-64
2022/08/14 02:19:45;;;;;;;1.52;1.42;;;;;;;;;;2099230;28;20052;-64
2022/08/14 02:21:04;;;;;;;2.10;1.80;;;;;;;;;;2099972;28;20020;-65
2022/08/14 02:22:24;;;;;;;1.83;1.73;;;;;;;;;;2101029;28;20028;-65
2022/08/14 02:23:48;;;;;;;1.85;1.40;;;;;;;;;;2099663;28;20024;-65
2022/08/14 02:25:07;;;;;;;1.70;1.60;;;;;;;;;;2100908;28;20028;-65
2022/08/14 02:26:27;;;;;;;4.78;1.60;;;;;;;;;;2099734;28;20117;-65
2022/08/14 02:27:47;;;;;;;2.42;1.70;;;;;;;;;;2099459;28;20027;-65
2022/08/14 02:29:08;;;;;;;1.95;1.40;;;;;;;;;;2100099;28;20103;-65
2022/08/14 02:30:27;;;;;;;2.67;1.30;;;;;;;;;;2099448;28;20119;-65
2022/08/14 02:31:48;;;;;;;2.55;1.70;;;;;;;;;;2098936;28;20021;-65
2022/08/14 02:33:07;;;;;;;2.45;1.70;;;;;;;;;;2098367;28;20068;-65
2022/08/14 02:34:31;;;;;;;1.92;1.80;;;;;;;;;;2099883;28;20500;-65
2022/08/14 02:35:51;;;;;;;2.58;1.60;;;;;;;;;;2101302;28;20036;-65
2022/08/14 02:37:11;;;;;;;3.88;1.50;;;;;;;;;;2099969;28;20032;-65
2022/08/14 02:38:30;;;;;;;1.70;1.60;;;;;;;;;;2101268;28;20476;-65
2022/08/14 02:39:49;;;;;;;1.40;1.30;;;;;;;;;;2100227;28;20032;-65
2022/08/14 02:41:09;;;;;;;2.42;1.55;;;;;;;;;;2097454;28;20029;-65
2022/08/14 02:42:29;;;;;;;1.88;1.77;;;;;;;;;;2100837;28;20020;-65
2022/08/14 02:43:48;;;;;;;3.50;1.63;;;;;;;;;;2099905;28;20028;-65
2022/08/14 02:45:07;;;;;;;2.55;1.63;;;;;;;;;;2097988;28;20051;-65
2022/08/14 02:46:26;;;;;;;2.67;1.80;;;;;;;;;;2097818;28;20145;-65
2022/08/14 02:47:45;;;;;;;4.40;1.42;;;;;;;;;;2098904;28;20016;-65
2022/08/14 02:49:07;;;;;;;1.70;1.60;;;;;;;;;;2099909;28;20419;-65
2022/08/14 02:50:27;;;;;;;2.03;1.40;;;;;;;;;;2101040;28;20032;-65
2022/08/14 02:51:49;;;;;;;1.60;1.50;;;;;;;;;;2100220;28;21310;-65
2022/08/14 02:53:08;;;;;;;1.92;1.75;;;;;;;;;;2100896;28;20012;-65
2022/08/14 02:54:27;;;;;;;2.20;1.58;;;;;;;;;;2100381;28;20473;-65
2022/08/14 02:55:46;;;;;;;1.80;1.70;;;;;;;;;;2099355;28;20025;-65
2022/08/14 02:57:06;;;;;;;3.53;1.55;;;;;;;;;;2097798;28;20029;-65
2022/08/14 02:58:25;;;;;;;1.27;1.27;;;;;;;;;;2101790;28;20451;-65
2022/08/14 02:59:45;;;;;;;1.67;1.50;;;;;;;;;;2098110;28;20451;-65
2022/08/14 03:01:07;;;;;;;3.15;1.20;;;;;;;;;;2099629;28;20043;-64
2022/08/14 03:02:32;;;;;;;1.85;1.75;;;;;;;;;;2098744;28;20012;-64
2022/08/14 03:03:51;;;;;;;2.65;1.77;;;;;;;;;;2099002;28;20060;-64
2022/08/14 03:05:11;;;;;;;1.65;1.40;;;;;;;;;;2098758;28;20037;-65
2022/08/14 03:06:30;;;;;;;3.30;1.58;;;;;;;;;;2100413;28;20032;-65
2022/08/14 03:07:49;;;;;;;1.55;1.20;;;;;;;;;;2098693;28;20029;-65
2022/08/14 03:09:10;;;;;;;1.23;1.10;;;;;;;;;;2100128;28;20028;-65
2022/08/14 03:10:29;;;;;;;1.67;1.58;;;;;;;;;;2101668;28;20489;-65
2022/08/14 03:11:48;;;;;;;2.53;1.42;;;;;;;;;;2099424;28;20024;-65
2022/08/14 03:13:06;;;;;;;1.58;1.35;;;;;;;;;;2100455;28;20024;-65
2022/08/14 03:14:26;;;;;;;2.15;1.60;;;;;;;;;;2099495;28;20111;-65
2022/08/14 03:15:52;;;;;;;6.57;1.58;;;;;;;;;;2098314;28;20036;-65
2022/08/14 03:17:14;;;;;;;1.60;1.50;;;;;;;;;;2094963;28;20085;-65
2022/08/14 03:18:33;;;;;;;2.70;1.67;;;;;;;;;;2099375;28;20103;-65
2022/08/14 03:19:51;;;;;;;2.22;1.45;;;;;;;;;;2099054;28;20028;-65
2022/08/14 03:21:12;;;;;;;1.45;1.35;;;;;;;;;;2100128;28;20021;-65
2022/08/14 03:22:32;;;;;;;2.05;1.38;;;;;;;;;;2098838;28;20509;-65
2022/08/14 03:24:04;;;;;;;1.77;1.33;;;;;;;;;;2098871;28;20045;-65
2022/08/14 03:25:24;;;;;;;2.30;1.70;;;;;;;;;;2097705;28;20025;-65
2022/08/14 03:26:45;;;;;;;3.88;1.33;;;;;;;;;;2097693;28;20032;-64
2022/08/14 03:28:08;;;;;;;1.67;1.58;;;;;;;;;;2099705;28;20068;-63
2022/08/14 03:29:27;;;;;;;2.80;1.60;;;;;;;;;;2099994;28;20099;-64
2022/08/14 03:30:46;;;;;;;1.67;1.40;;;;;;;;;;2098801;28;20500;-64
2022/08/14 03:32:05;;;;;;;1.73;1.63;;;;;;;;;;2096555;28;20028;-64
2022/08/14 03:33:26;;;;;;;4.07;1.60;;;;;;;;;;2094859;28;20032;-64
2022/08/14 03:34:45;;;;;;;2.83;1.63;;;;;;;;;;2099855;28;20045;-64
2022/08/14 03:36:11;;;;;;;4.28;1.50;;;;;;;;;;2099153;28;20107;-64
2022/08/14 03:37:29;;;;;;;1.60;1.50;;;;;;;;;;2099484;28;20032;-64
2022/08/14 03:38:50;;;;;;;1.67;1.58;;;;;;;;;;2100220;28;20397;-64
2022/08/14 03:40:10;;;;;;;1.95;1.70;;;;;;;;;;2098902;28;20040;-64
2022/08/14 03:41:30;;;;;;;2.20;1.80;;;;;;;;;;2098379;28;20036;-64
2022/08/14 03:42:49;;;;;;;1.58;1.48;;;;;;;;;;2096897;28;20032;-64
2022/08/14 03:44:08;;;;;;;2.40;1.50;;;;;;;;;;2100015;28;20048;-64
2022/08/14 03:45:27;;;;;;;1.70;1.60;;;;;;;;;;2098700;28;20432;-64
2022/08/14 03:46:46;;;;;;;1.90;1.80;;;;;;;;;;2098774;28;20024;-64
2022/08/14 03:48:18;;;;;;;2.05;1.65;;;;;;;;;;2099248;28;20532;-64
2022/08/14 03:49:39;;;;;;;1.83;1.70;;;;;;;;;;2100016;28;20036;-64
2022/08/14 03:50:58;;;;;;;2.30;1.38;;;;;;;;;;2100159;28;20029;-64
2022/08/14 03:52:17;;;;;;;1.85;1.58;;;;;;;;;;2099747;28;20478;-64
2022/08/14 03:53:37;;;;;;;1.98;1.60;;;;;;;;;;2098905;28;20064;-64
2022/08/14 03:54:57;;;;;;;3.15;1.70;;;;;;;;;;2100828;28;20028;-64
2022/08/14 03:56:17;;;;;;;2.30;1.50;;;;;;;;;;2096324;28;20439;-64
2022/08/14 03:57:36;;;;;;;1.67;1.27;;;;;;;;;;2098584;28;20020;-64
2022/08/14 03:58:56;;;;;;;1.95;1.63;;;;;;;;;;2100739;28;20067;-65
2022/08/14 04:00:15;;;;;;;1.70;1.60;;;;;;;;;;2097084;28;20032;-65
2022/08/14 04:01:34;;;;;;;1.77;1.58;;;;;;;;;;2100611;28;20544;-65
2022/08/14 04:02:53;;;;;;;1.50;1.40;;;;;;;;;;2098412;28;20024;-65
2022/08/14 04:04:12;;;;;;;2.35;1.38;;;;;;;;;;2097160;28;20060;-65
2022/08/14 04:05:31;;;;;;;3.67;1.55;;;;;;;;;;2096647;28;20028;-65
2022/08/14 04:06:50;;;;;;;2.80;1.40;;;;;;;;;;2101407;28;20040;-65
2022/08/14 04:08:10;;;;;;;3.08;1.70;;;;;;;;;;2100812;28;20485;-65
2022/08/14 04:09:29;;;;;;;1.73;1.58;;;;;;;;;;2100377;28;20020;-65
2022/08/14 04:10:48;;;;;;;2.78;1.73;;;;;;;;;;2099884;28;20492;-65
2022/08/14 04:12:07;;;;;;;1.70;1.60;;;;;;;;;;2101153;28;20032;-65
2022/08/14 04:13:26;;;;;;;3.03;1.30;;;;;;;;;;2097555;28;20481;-65
2022/08/14 04:14:44;;;;;;;1.63;1.45;;;;;;;;;;2098160;28;20069;-65
2022/08/14 04:16:05;;;;;;;2.70;1.42;;;;;;;;;;2098079;28;20044;-65
2022/08/14 04:17:25;;;;;;;1.95;1.33;;;;;;;;;;2097975;28;20036;-64
2022/08/14 04:18:45;;;;;;;2.25;1.58;;;;;;;;;;2098962;28;20438;-64
2022/08/14 04:20:05;;;;;;;2.90;1.50;;;;;;;;;;2099448;28;20114;-65
2022/08/14 04:21:28;;;;;;;4.45;1.40;;;;;;;;;;2100594;28;20497;-64
2022/08/14 04:22:49;;;;;;;3.60;1.67;;;;;;;;;;2101501;28;20028;-64
2022/08/14 04:24:09;;;;;;;2.95;1.30;;;;;;;;;;2100373;28;20056;-65
2022/08/14 04:25:28;;;;;;;1.85;1.48;;;;;;;;;;2100405;28;20025;-65
2022/08/14 04:26:47;;;;;;;2.80;1.30;;;;;;;;;;2097506;28;20047;-65
2022/08/14 04:28:06;;;;;;;1.63;1.52;;;;;;;;;;2097544;28;20585;-64
2022/08/14 04:29:25;;;;;;;1.75;1.42;;;;;;;;;;2100204;28;20492;-64
2022/08/14 04:30:44;;;;;;;1.30;1.20;;;;;;;;;;2098045;28;20108;-64
2022/08/14 04:32:04;;;;;;;2.45;1.50;;;;;;;;;;2097125;28;20124;-64
2022/08/14 04:33:24;;;;;;;3.67;1.50;;;;;;;;;;2099261;28;20032;-65
2022/08/14 04:34:43;;;;;;;1.42;1.25;;;;;;;;;;2098740;28;20044;-65
2022/08/14 04:36:02;;;;;;;2.20;1.08;;;;;;;;;;2100608;28;20036;-65
2022/08/14 04:43:53;;;;;;;1.55;1.30;;;;;;;;;;2099651;28;20037;-65
2022/08/14 04:45:13;;;;;;;3.13;1.77;;;;;;;;;;2096719;28;20036;-66
2022/08/14 04:46:33;;;;;;;1.77;1.42;;;;;;;;;;2099698;28;20036;-65
2022/08/14 04:49:30;;;;;;;4.63;1.23;;;;;;;;;;2100883;28;20028;-65
2022/08/14 04:50:50;;;;;;;1.50;1.40;;;;;;;;;;2100046;28;20036;-65
2022/08/14 04:52:09;;;;;;;7.90;1.50;;;;;;;;;;2100931;28;20114;-65
2022/08/14 04:53:29;;;;;;;1.73;1.50;;;;;;;;;;2099367;28;20083;-65
2022/08/14 04:54:48;;;;;;;1.85;1.35;;;;;;;;;;2100350;28;20056;-65
2022/08/14 04:56:07;;;;;;;1.70;1.60;;;;;;;;;;2099847;28;20028;-65
2022/08/14 04:57:26;;;;;;;3.83;1.58;;;;;;;;;;2098625;28;20032;-65
2022/08/14 04:58:46;;;;;;;2.45;1.58;;;;;;;;;;2097538;28;20460;-65
2022/08/14 05:00:06;;;;;;;1.65;1.55;;;;;;;;;;2098528;28;20028;-64
2022/08/14 05:01:25;;;;;;;2.67;1.20;;;;;;;;;;2099600;28;20033;-65
2022/08/14 05:02:44;;;;;;;1.48;1.38;;;;;;;;;;2098600;28;20032;-65
2022/08/14 05:04:03;;;;;;;1.63;1.40;;;;;;;;;;2098910;28;20469;-65
2022/08/14 05:05:23;;;;;;;1.20;1.13;;;;;;;;;;2100327;28;20016;-65
2022/08/14 05:06:42;;;;;;;1.27;1.20;;;;;;;;;;2099300;28;20032;-65
2022/08/14 05:08:07;;;;;;;6.65;1.40;;;;;;;;;;2100101;28;20032;-65
2022/08/14 05:09:26;;;;;;;4.00;1.40;;;;;;;;;;2099899;28;20103;-65
2022/08/14 05:10:50;;;;;;;2.10;1.30;;;;;;;;;;2099980;28;20450;-65
2022/08/14 05:12:11;;;;;;;1.13;1.05;;;;;;;;;;2094528;28;20036;-65
2022/08/14 05:13:31;;;;;;;1.70;1.20;;;;;;;;;;2098844;28;20056;-65
2022/08/14 05:14:50;;;;;;;3.17;1.30;;;;;;;;;;2098860;28;20036;-65
2022/08/14 05:16:12;;;;;;;2.92;1.40;;;;;;;;;;2100909;28;20028;-65
2022/08/14 05:17:31;;;;;;;1.60;1.30;;;;;;;;;;2096191;28;20055;-65
2022/08/14 05:18:50;;;;;;;1.90;1.20;;;;;;;;;;2099366;28;20032;-65
2022/08/14 05:20:09;;;;;;;1.95;1.40;;;;;;;;;;2098465;28;20041;-65
2022/08/14 05:21:28;;;;;;;5.30;1.50;;;;;;;;;;2099181;28;20381;-65
2022/08/14 05:22:47;;;;;;;1.23;1.20;;;;;;;;;;2100355;28;20115;-65
2022/08/14 05:24:06;;;;;;;7.47;1.67;;;;;;;;;;2098499;28;20048;-65
2022/08/14 05:25:25;;;;;;;2.17;1.35;;;;;;;;;;2100363;28;20416;-65
2022/08/14 05:26:45;;;;;;;2.15;1.23;;;;;;;;;;2098166;28;20435;-65
2022/08/14 05:28:11;;;;;;;2.05;1.38;;;;;;;;;;2099165;28;20021;-65
2022/08/14 05:29:30;;;;;;;2.45;1.13;;;;;;;;;;2100929;28;20477;-65
2022/08/14 05:30:54;;;;;;;3.58;1.40;;;;;;;;;;2098234;28;20033;-65
2022/08/14 05:32:15;;;;;;;3.90;1.27;;;;;;;;;;2097535;28;20040;-65
2022/08/14 05:33:35;;;;;;;1.95;1.45;;;;;;;;;;2099872;28;20029;-65
2022/08/14 05:34:56;;;;;;;2.92;1.48;;;;;;;;;;2098331;28;20385;-65
2022/08/14 05:36:15;;;;;;;2.53;1.40;;;;;;;;;;2101064;28;20071;-65
2022/08/14 05:37:34;;;;;;;1.58;1.33;;;;;;;;;;2101714;28;20029;-64
2022/08/14 05:38:53;;;;;;;3.90;1.30;;;;;;;;;;2102390;28;20024;-65
2022/08/14 05:40:12;;;;;;;3.50;1.42;;;;;;;;;;2100276;28;20138;-65
2022/08/14 05:41:31;;;;;;;1.63;1.10;;;;;;;;;;2101142;28;20102;-65
2022/08/14 05:42:50;;;;;;;2.50;1.25;;;;;;;;;;2100023;28;20056;-65
2022/08/14 05:44:09;;;;;;;1.27;1.17;;;;;;;;;;2100438;28;20044;-68
2022/08/14 05:45:28;;;;;;;1.60;1.20;;;;;;;;;;2097930;28;20609;-66
2022/08/14 05:46:47;;;;;;;1.60;1.50;;;;;;;;;;2101241;28;20060;-67
2022/08/14 05:48:07;;;;;;;1.48;1.33;;;;;;;;;;2098347;28;20059;-67
2022/08/14 05:49:25;;;;;;;2.00;1.25;;;;;;;;;;2100480;28;20025;-67
2022/08/14 05:50:45;;;;;;;3.97;1.23;;;;;;;;;;2101150;28;20025;-68
2022/08/14 05:52:05;;;;;;;3.85;1.30;;;;;;;;;;2101458;28;20029;-68
2022/08/14 05:53:25;;;;;;;1.75;1.13;;;;;;;;;;2101783;28;20025;-68
2022/08/14 05:54:43;;;;;;;2.45;1.65;;;;;;;;;;2099895;28;20036;-68
2022/08/14 05:56:02;;;;;;;3.45;1.38;;;;;;;;;;2100863;28;20104;-66
2022/08/14 05:57:21;;;;;;;3.17;1.77;;;;;;;;;;2100096;28;20032;-68
2022/08/14 05:58:41;;;;;;;2.30;1.45;;;;;;;;;;2101575;28;20099;-67
2022/08/14 05:59:59;;;;;;;1.27;1.10;;;;;;;;;;2099380;28;20040;-68
2022/08/14 06:01:19;;;;;;;1.83;1.50;;;;;;;;;;2100287;28;20028;-68
2022/08/14 06:02:37;;;;;;;2.08;0.98;;;;;;;;;;2097628;28;21288;-66
2022/08/14 06:03:56;;;;;;;1.23;1.13;;;;;;;;;;2098369;28;20056;-65
2022/08/14 06:05:15;;;;;;;3.03;1.08;;;;;;;;;;2100235;28;20033;-66
2022/08/14 06:06:34;;;;;;;1.95;1.05;;;;;;;;;;2100327;28;20089;-66
2022/08/14 06:07:53;;;;;;;2.70;1.13;;;;;;;;;;2100638;28;20029;-66
2022/08/14 06:09:13;;;;;;;1.70;1.08;;;;;;;;;;2100264;28;20100;-66
2022/08/14 06:10:32;;;;;;;1.52;1.30;;;;;;;;;;2101726;28;20104;-69
2022/08/14 06:11:51;;;;;;;3.38;1.38;;;;;;;;;;2098913;28;20024;-68
2022/08/14 06:13:10;;;;;;;2.03;1.20;;;;;;;;;;2101466;28;20036;-69
2022/08/14 06:14:30;;;;;;;6.05;1.25;;;;;;;;;;2099620;28;20032;-68
2022/08/14 06:15:49;;;;;;;1.25;1.10;;;;;;;;;;2098629;28;20430;-69
2022/08/14 06:17:08;;;;;;;1.38;1.27;;;;;;;;;;2096974;28;20419;-69
2022/08/14 06:18:27;;;;;;;2.70;1.30;;;;;;;;;;2098032;28;20044;-69
2022/08/14 06:19:46;;;;;;;3.30;1.60;;;;;;;;;;2100979;28;20060;-69
2022/08/14 06:21:05;;;;;;;1.45;1.30;;;;;;;;;;2101222;28;20476;-69
2022/08/14 06:22:24;;;;;;;2.47;1.00;;;;;;;;;;2100167;28;20025;-70
2022/08/14 06:23:43;;;;;;;3.25;0.80;;;;;;;;;;2097784;28;20036;-68
2022/08/14 06:25:02;;;;;;;1.30;1.20;;;;;;;;;;2100453;28;20446;-69
2022/08/14 06:26:21;;;;;;;2.28;1.10;;;;;;;;;;2099492;28;20025;-68
2022/08/14 06:27:41;;;;;;;1.00;1.00;;;;;;;;;;2099776;28;20048;-69
2022/08/14 06:29:00;;;;;;;2.88;1.10;;;;;;;;;;2100788;28;20032;-69
2022/08/14 06:30:21;;;;;;;1.02;0.93;;;;;;;;;;2099917;28;20122;-68
2022/08/14 06:31:40;;;;;;;1.63;1.05;;;;;;;;;;2097424;28;20041;-69
2022/08/14 06:32:59;;;;;;;2.35;1.13;;;;;;;;;;2100193;28;20036;-68
2022/08/14 06:34:18;;;;;;;2.22;1.20;;;;;;;;;;2099452;28;20028;-69
2022/08/14 06:35:37;;;;;;;2.10;1.13;;;;;;;;;;2098445;28;20036;-68
2022/08/14 06:36:56;;;;;;;1.35;0.90;;;;;;;;;;2100849;28;20040;-68
2022/08/14 06:38:19;;;;;;;1.23;1.10;;;;;;;;;;2100254;28;20040;-68
2022/08/14 06:39:38;;;;;;;2.55;1.00;;;;;;;;;;2100386;28;20405;-69
2022/08/14 06:40:57;;;;;;;1.38;1.27;;;;;;;;;;2100480;28;20036;-68
2022/08/14 06:42:16;;;;;;;1.85;1.17;;;;;;;;;;2101028;28;20040;-69
2022/08/14 06:43:35;;;;;;;3.83;1.25;;;;;;;;;;2100508;28;20041;-69
2022/08/14 06:44:54;;;;;;;2.55;1.00;;;;;;;;;;2099875;28;20036;-69
2022/08/14 06:46:13;;;;;;;2.55;0.90;;;;;;;;;;2099350;28;20028;-69
2022/08/14 06:47:36;;;;;;;3.83;1.48;;;;;;;;;;2094544;28;20020;-68
2022/08/14 06:48:55;;;;;;;;;;;;;;;;;;2098147;28;20067;-68
2022/08/14 06:50:17;;;;;;;1.05;1.00;;;;;;;;;;2096676;28;19908;-69
2022/08/14 06:51:36;;;;;;;1.90;1.13;;;;;;;;;;2098072;28;20052;-69
2022/08/14 06:52:55;;;;;;;1.30;0.85;;;;;;;;;;2099977;28;20040;-69
2022/08/14 06:54:14;;;;;;;5.00;1.45;;;;;;;;;;2100171;28;20040;-68
2022/08/14 06:55:33;;;;;;;2.50;1.20;;;;;;;;;;2101930;28;20040;-69
2022/08/14 06:56:52;;;;;;;2.10;1.38;;;;;;;;;;2100642;28;20036;-69
2022/08/14 06:58:15;;;;;;;3.97;0.95;;;;;;;;;;2099268;28;20032;-69
2022/08/14 06:59:34;;;;;;;;;;;;;;;;;;2100459;28;20028;-69
2022/08/14 07:05:48;;;;;;;2.58;0.98;;;;;;;;;;2101824;28;20029;-66
2022/08/14 07:07:06;;;;;;;3.65;1.00;;;;;;;;;;2101224;28;20036;-67
2022/08/14 07:08:27;;;;;;;1.13;1.10;;;;;;;;;;2099322;28;20108;-67
2022/08/14 07:09:46;;;;;;;0.95;0.90;;;;;;;;;;2101215;28;20392;-67
2022/08/14 07:11:04;;;;;;;3.10;1.15;;;;;;;;;;2101738;28;20017;-66
2022/08/14 07:12:23;;;;;;;3.63;1.20;;;;;;;;;;2099370;28;20024;-66
2022/08/14 07:13:42;;;;;;;1.00;0.90;;;;;;;;;;2099409;28;20127;-67
2022/08/14 07:15:02;;;;;;;2.55;1.00;;;;;;;;;;2100834;28;20024;-67
2022/08/14 07:16:21;;;;;;;3.42;1.10;;;;;;;;;;2101538;28;20555;-66
2022/08/14 07:17:47;;;;;;;1.73;1.10;;;;;;;;;;2099169;28;20028;-66
2022/08/14 07:19:07;;;;;;;0.80;0.80;;;;;;;;;;2097007;28;20020;-69
2022/08/14 07:20:27;;;;;;;1.25;1.08;;;;;;;;;;2099416;28;20037;-68
2022/08/14 07:21:46;;;;;;;2.97;1.20;;;;;;;;;;2101150;28;20114;-65
2022/08/14 07:23:07;;;;;;;2.28;1.05;;;;;;;;;;2098836;28;20060;-66
2022/08/14 07:24:26;;;;;;;1.85;1.33;;;;;;;;;;2100999;28;20036;-67
2022/08/14 07:25:45;;;;;;;1.27;0.95;;;;;;;;;;2099686;28;20977;-67
2022/08/14 07:27:04;;;;;;;4.85;1.00;;;;;;;;;;2100269;28;20127;-66
2022/08/14 07:28:25;;;;;;;3.60;0.70;;;;;;;;;;2099295;28;20027;-67
2022/08/14 07:29:44;;;;;;;2.67;1.77;;;;;;;;;;2099818;28;20111;-67
2022/08/14 07:31:05;;;;;;;4.88;1.40;;;;;;;;;;2100497;28;20103;-68
2022/08/14 07:32:24;;;;;;;1.83;1.05;;;;;;;;;;2099547;28;20028;-66
2022/08/14 07:33:44;;;;;;;2.03;1.00;;;;;;;;;;2098650;28;20068;-63
2022/08/14 07:35:03;;;;;;;1.70;0.93;;;;;;;;;;2100640;28;20068;-63
2022/08/14 07:36:22;;;;;;;2.35;0.90;;;;;;;;;;2100470;28;20036;-65
2022/08/14 07:37:41;;;;;;;3.33;0.90;;;;;;;;;;2099703;28;20484;-64
2022/08/14 07:39:00;;;;;;;1.73;1.23;;;;;;;;;;2099357;28;20040;-64
2022/08/14 07:40:19;;;;;;;2.05;1.00;;;;;;;;;;2102335;28;20040;-64
2022/08/14 07:41:38;;;;;;;3.58;1.30;;;;;;;;;;2098635;28;20389;-63
2022/08/14 07:42:57;;;;;;;3.08;1.10;;;;;;;;;;2097636;28;20024;-64
2022/08/14 07:44:17;;;;;;;3.05;1.00;;;;;;;;;;2099423;28;20127;-65
2022/08/14 07:45:36;;;;;;;3.03;0.90;;;;;;;;;;2098466;28;20020;-64
2022/08/14 07:46:55;;;;;;;2.60;1.05;;;;;;;;;;2097952;28;20032;-62
2022/08/14 07:48:14;;;;;;;2.55;1.15;;;;;;;;;;2100397;28;20025;-61
2022/08/14 07:49:33;;;;;;;1.92;1.05;;;;;;;;;;2099376;28;20408;-62
2022/08/14 07:50:53;;;;;;;1.42;1.10;;;;;;;;;;2097922;28;20552;-63
2022/08/14 07:52:11;;;;;;;3.15;0.80;;;;;;;;;;2099227;28;20442;-61
2022/08/14 07:53:30;;;;;;;1.10;0.90;;;;;;;;;;2098748;28;20393;-63
2022/08/14 07:54:49;;;;;;;4.25;1.10;;;;;;;;;;2098885;28;20032;-63
2022/08/14 07:56:09;;;;;;;3.33;1.23;;;;;;;;;;2098227;28;20023;-65
2022/08/14 07:57:28;;;;;;;1.15;1.02;;;;;;;;;;2098568;28;20325;-65
2022/08/14 07:58:46;;;;;;;1.15;1.13;;;;;;;;;;2100203;28;20086;-64
2022/08/14 08:00:13;;;;;;;2.80;1.10;;;;;;;;;;2096858;28;20050;-65
2022/08/14 08:01:33;;;;;;;1.20;1.10;;;;;;;;;;2096080;28;20029;-62
2022/08/14 08:02:53;;;;;;;1.80;0.75;;;;;;;;;;2096815;28;20443;-63
2022/08/14 08:04:13;;;;;;;3.35;0.85;;;;;;;;;;2099123;28;20036;-62
2022/08/14 08:05:32;;;;;;;1.77;1.13;;;;;;;;;;2100894;28;20112;-62
2022/08/14 08:06:51;;;;;;;2.90;1.17;;;;;;;;;;2097232;28;20033;-62
2022/08/14 08:08:10;;;;;;;1.35;1.00;;;;;;;;;;2099132;28;20427;-62
2022/08/14 08:09:31;;;;;;;1.33;0.93;;;;;;;;;;2099580;28;20040;-62
2022/08/14 08:10:52;;;;;;;5.15;1.38;;;;;;;;;;2099543;28;20473;-61
2022/08/14 08:12:12;;;;;;;1.50;1.05;;;;;;;;;;2099369;28;20029;-60
2022/08/14 08:13:32;;;;;;;3.42;0.85;;;;;;;;;;2098220;28;20025;-62
2022/08/14 08:14:51;;;;;;;1.67;0.90;;;;;;;;;;2099691;28;20029;-62
2022/08/14 08:16:10;;;;;;;5.13;1.20;;;;;;;;;;2099826;28;20036;-62
2022/08/14 08:17:30;;;;;;;5.35;1.35;;;;;;;;;;2098310;28;20032;-62